• Join FlightAware (Why Join?)
  • Login
  • US Flag 
03:29AM EST


 

Airport Tracker/Info


-or-


 

Live Flight TrackerFlight Track Log ✈ N27XP ✈ 20-Mar-2014 ✈ KRDU - KISM

Flight Track Log - Related Links

Times and Time Zones

All times are in EDT time to prevent confusion due to time zone crossing. See the N27XP flight status page for this flight to view local times or setup timezone preferences in your user account.

Time Position Orientation Groundspeed Altitude Reporting Facility
EDT Latitude Longitude Course Direction KTS MPH feet Rate Location/Type
12:08PM 35.8519 -78.8106 202° Southwest 193 222 1,300  Level Washington Center
12:08PM 35.8181 -78.8272 202° Southwest 215 247 2,800 2,280 Climbing Washington Center
12:09PM 35.7864 -78.8439 203° Southwest 261 300 4,000 2,400 Climbing Washington Center
12:09PM 35.7611 -78.8531 196° South 272 313 5,000 2,700 Climbing Washington Center
12:10PM 35.7169 -78.8614 189° South 276 318 6,800 2,460 Climbing Washington Center
12:11PM 35.6456 -78.8022 146° Southeast 269 310 9,200 2,220 Climbing Washington Center
12:12PM 35.5619 -78.7300 145° Southeast 307 353 11,300 2,520 Climbing Washington Center
12:13PM 35.4686 -78.7161 173° South 329 379 14,200 2,340 Climbing Washington Center
12:14PM 35.3814 -78.7000 171° South 329 379 16,000 1,740 Climbing Washington Center
12:15PM 35.2961 -78.6867 173° South 334 384 17,800 1,740 Climbing Washington Center
12:16PM 35.2047 -78.6703 172° South 334 384 19,500 1,740 Climbing Washington Center
12:17PM 35.1092 -78.6539 172° South 339 390 21,300 1,500 Climbing Washington Center
12:18PM 35.0072 -78.6400 174° South 354 407 22,500 1,260 Climbing Washington Center
12:19PM 34.9131 -78.6517 186° South 354 407 23,900 1,320 Climbing Washington Center
12:20PM 34.8386 -78.7069 211° Southwest 329 379 25,200 1,260 Climbing Washington Center
12:21PM 34.7619 -78.7622 211° Southwest 323 372 26,400 900 Climbing Washington Center
12:22PM 34.6856 -78.8172 211° Southwest 323 372 27,100 720 Climbing Washington Center
12:23PM 34.6047 -78.8722 209° Southwest 329 379 27,900 780 Climbing Washington Center
12:24PM 34.5067 -78.9394 209° Southwest 328 377 28,800 960 Climbing Jacksonville Center
12:25PM 34.4314 -78.9983 213° Southwest 328 377 29,900 900 Climbing Jacksonville Center
12:26PM 34.3539 -79.0519 210° Southwest 328 377 30,600 660 Climbing Jacksonville Center
12:27PM 34.2719 -79.1058 209° Southwest 328 377 31,300 720 Climbing Jacksonville Center
12:28PM 34.1944 -79.1619 211° Southwest 328 377 32,100 720 Climbing Jacksonville Center
12:29PM 34.1125 -79.2181 210° Southwest 328 377 32,800 660 Climbing Jacksonville Center
12:30PM 34.0347 -79.2692 209° Southwest 328 377 33,500 660 Climbing Jacksonville Center
12:31PM 33.9550 -79.3250 210° Southwest 328 377 34,200 660 Climbing Jacksonville Center
12:32PM 33.8750 -79.3758 208° Southwest 328 377 34,900 600 Climbing Jacksonville Center
12:33PM 33.7994 -79.4311 211° Southwest 328 377 35,500 480 Climbing Jacksonville Center
12:34PM 33.7256 -79.4792 208° Southwest 318 366 35,900 240 Climbing Jacksonville Center
12:35PM 33.6456 -79.5319 209° Southwest 318 366 36,000  Climbing Jacksonville Center
12:36PM 33.5678 -79.5872 211° Southwest 330 380 36,000  Level Jacksonville Center
12:37PM 33.4836 -79.6428 209° Southwest 335 386 36,000  Level Jacksonville Center
12:38PM 33.3994 -79.7006 210° Southwest 342 394 36,000  Level Jacksonville Center
12:39PM 33.3133 -79.7558 208° Southwest 347 399 36,000  Level Jacksonville Center
12:40PM 33.2272 -79.8161 210° Southwest 347 399 36,000  Level Jacksonville Center
12:41PM 33.1428 -79.8711 209° Southwest 347 399 36,000  Level Jacksonville Center
12:42PM 33.0544 -79.9261 208° Southwest 347 399 36,000  Level Jacksonville Center
12:43PM 32.9683 -79.9883 211° Southwest 347 399 36,000  Level Jacksonville Center
12:44PM 32.8817 -80.0431 208° Southwest 347 399 36,000  Level Jacksonville Center
12:45PM 32.8017 -80.1047 213° Southwest 347 399 36,000  Level Jacksonville Center
12:46PM 32.7194 -80.1642 211° Southwest 347 399 36,000  Level Jacksonville Center
12:47PM 32.6375 -80.2258 212° Southwest 353 406 36,000  Level Jacksonville Center
12:48PM 32.5553 -80.2875 212° Southwest 353 406 36,000  Level Jacksonville Center
12:49PM 32.4833 -80.3411 212° Southwest 353 406 36,000  Level Jacksonville Center
12:51PM 32.3186 -80.4614 212° Southwest 353 406 36,000  Level Jacksonville Center
12:52PM 32.2364 -80.5250 213° Southwest 353 406 36,000  Level Jacksonville Center
12:53PM 32.1517 -80.5836 210° Southwest 353 406 36,000  Level Jacksonville Center
12:54PM 32.0736 -80.6419 212° Southwest 353 406 36,000  Level Jacksonville Center
12:55PM 31.9806 -80.7078 211° Southwest 359 413 36,000  Level Jacksonville Center
12:56PM 31.8961 -80.7686 211° Southwest 359 413 36,000  Level Jacksonville Center
12:57PM 31.8197 -80.8242 212° Southwest 359 413 36,000  Level Jacksonville Center
12:58PM 31.7247 -80.8897 210° Southwest 359 413 36,000  Level Jacksonville Center
12:59PM 31.6422 -80.9525 213° Southwest 359 413 36,000  Level Jacksonville Center
01:00PM 31.5636 -81.0053 210° Southwest 359 413 36,000  Level Jacksonville Center
01:01PM 31.4708 -81.0731 212° Southwest 359 413 36,000  Level Jacksonville Center
01:02PM 31.3922 -81.1281 211° Southwest 359 413 36,000  Level Jacksonville Center
01:03PM 31.2883 -81.1567 193° South 366 421 36,000  Level Jacksonville Center
01:04PM 31.1644 -81.1153 164° South 408 470 36,000 -360 Level Jacksonville Center
01:05PM 31.0367 -81.0936 172° South 432 497 35,300 -840 Descending Jacksonville Center
01:06PM 30.9200 -81.1056 185° South 437 503 34,400 -660 Descending Jacksonville Center
01:07PM 30.8053 -81.1222 187° South 430 495 34,000 -240 Descending Jacksonville Center
01:08PM 30.6950 -81.1436 189° South 417 480 34,000  Level Jacksonville Center
01:09PM 30.5803 -81.1528 184° South 417 480 34,000  Level Jacksonville Center
01:10PM 30.4572 -81.1503 179° South 424 488 34,000 -660 Level Jacksonville Center
01:11PM 30.3381 -81.1428 177° South 429 494 32,700 -2,340 Descending Jacksonville Center
01:12PM 30.2128 -81.1428 180° South 443 510 29,400 -3,060 Descending Jacksonville Center
01:13PM 30.0894 -81.1378 178° South 443 510 26,600 -2,700 Descending Jacksonville Center
01:14PM 29.9747 -81.1350 179° South 431 496 24,100 -1,320 Descending Jacksonville Center
01:15PM 29.8661 -81.1322 179° South 416 479 24,000 -60 Descending Jacksonville Center
01:16PM 29.7533 -81.1269 178° South 404 465 24,000  Level Jacksonville Center
01:17PM 29.6425 -81.1267 180° South 404 465 24,000  Level Jacksonville Center
01:18PM 29.5339 -81.1214 178° South 404 465 24,000 -960 Level Jacksonville Center
01:19PM 29.4128 -81.1142 177° South 404 465 22,100 -2,460 Descending Jacksonville Center
01:20PM 29.2958 -81.1139 180° South 417 480 19,100 -3,000 Descending Jacksonville Center
01:21PM 29.1831 -81.1064 177° South 406 467 16,200 -2,880 Descending Jacksonville Center
01:22PM 29.0744 -81.0964 175° South 406 467 13,400 -2,160 Descending Jacksonville Center
01:23PM 28.9658 -81.0867 176° South 398 458 11,900 -1,020 Descending Jacksonville Center
01:24PM 28.8592 -81.0767 175° South 391 450 11,400 -900 Descending Jacksonville Center
01:25PM 28.7667 -81.0667 175° South 376 433 10,300 -1,560 Descending Orlando TRACON
01:26PM 28.6833 -81.0667 180° South 316 364 8,700 -1,800 Descending Orlando TRACON
01:27PM 28.6000 -81.0500 170° South 288 331 6,700 -1,380 Descending Orlando TRACON
01:28PM 28.5167 -81.0333 170° South 285 328 5,900 -1,140 Descending Orlando TRACON
01:29PM 28.4500 -81.0333 180° South 259 298 4,500 -1,500 Descending Orlando TRACON
01:30PM 28.3667 -81.0333 180° South 273 314 2,900 -780 Descending Orlando TRACON
01:31PM 28.3000 -81.0500 192° South 249 287 3,000  Climbing Orlando TRACON
01:32PM 28.2333 -81.0667 192° South 254 292 2,900  Descending Orlando TRACON
01:33PM 28.1667 -81.0833 192° South 252 290 3,000  Climbing Orlando TRACON
01:34PM 28.1000 -81.1333 213° Southwest 264 304 2,900 -240 Descending Orlando TRACON
01:35PM 28.1167 -81.2167 283° West 264 304 2,600 -480 Descending Orlando TRACON
01:36PM 28.1167 -81.3000 270° West 272 313 2,000 -360 Descending Orlando TRACON
01:37PM 28.1667 -81.3500 319° Northwest 246 283 1,900 -240 Descending Orlando TRACON
01:38PM 28.2167 -81.3833 330° Northwest 163 188 1,600 -600 Descending Orlando TRACON
01:39PM 28.2500 -81.4167 319° Northwest 151 174 700 -900 Descending Orlando TRACON
01:41PM 28.2833 -81.4333 305° West  Level FlightAware Approximate
01:48PM 28.2898 -81.4371 333° Northwest  Level Estimated
01:49PM 28.2898 -81.4371 North  Level Estimated
01:50PM 28.2898 -81.4371 North  Level Estimated
01:51PM 28.2898 -81.4371 North  Level Estimated